sensor_id;sensor_type;location;lat;lon;timestamp;P1;durP1;ratioP1;P2;durP2;ratioP2
35977;SDS011;22056;0.000;0.000;2023-05-23T00:02:14;2.13;;;1.08;;
35977;SDS011;22056;0.000;0.000;2023-05-23T00:04:40;2.08;;;1.20;;
35977;SDS011;22056;0.000;0.000;2023-05-23T00:07:07;1.77;;;1.13;;
35977;SDS011;22056;0.000;0.000;2023-05-23T00:09:33;2.03;;;1.33;;
35977;SDS011;22056;0.000;0.000;2023-05-23T00:11:59;2.55;;;1.02;;
35977;SDS011;22056;0.000;0.000;2023-05-23T00:14:25;1.65;;;1.25;;
35977;SDS011;22056;0.000;0.000;2023-05-23T00:16:51;1.30;;;1.20;;
35977;SDS011;22056;0.000;0.000;2023-05-23T00:19:19;1.67;;;1.40;;
35977;SDS011;22056;0.000;0.000;2023-05-23T00:21:45;1.63;;;1.40;;
35977;SDS011;22056;0.000;0.000;2023-05-23T00:24:21;1.60;;;1.02;;
35977;SDS011;22056;0.000;0.000;2023-05-23T00:26:47;2.10;;;1.20;;
35977;SDS011;22056;0.000;0.000;2023-05-23T00:29:13;1.45;;;0.98;;
35977;SDS011;22056;0.000;0.000;2023-05-23T00:31:43;1.73;;;1.20;;
35977;SDS011;22056;0.000;0.000;2023-05-23T00:34:13;1.88;;;1.13;;
35977;SDS011;22056;0.000;0.000;2023-05-23T00:36:39;0.95;;;0.85;;
35977;SDS011;22056;0.000;0.000;2023-05-23T00:39:07;1.38;;;1.10;;
35977;SDS011;22056;0.000;0.000;2023-05-23T00:41:33;2.38;;;1.00;;
35977;SDS011;22056;0.000;0.000;2023-05-23T00:44:02;1.27;;;1.10;;
35977;SDS011;22056;0.000;0.000;2023-05-23T00:46:31;1.67;;;1.25;;
35977;SDS011;22056;0.000;0.000;2023-05-23T00:48:57;1.15;;;1.05;;
35977;SDS011;22056;0.000;0.000;2023-05-23T00:51:23;1.35;;;1.08;;
35977;SDS011;22056;0.000;0.000;2023-05-23T00:53:50;1.20;;;1.10;;
35977;SDS011;22056;0.000;0.000;2023-05-23T00:56:16;1.17;;;1.08;;
35977;SDS011;22056;0.000;0.000;2023-05-23T00:58:43;1.55;;;1.00;;
35977;SDS011;22056;0.000;0.000;2023-05-23T01:01:10;1.23;;;1.13;;
35977;SDS011;22056;0.000;0.000;2023-05-23T01:03:36;1.58;;;1.00;;
35977;SDS011;22056;0.000;0.000;2023-05-23T01:06:02;1.33;;;1.23;;
35977;SDS011;22056;0.000;0.000;2023-05-23T01:08:28;1.33;;;1.10;;
35977;SDS011;22056;0.000;0.000;2023-05-23T01:10:55;1.30;;;1.10;;
35977;SDS011;22056;0.000;0.000;2023-05-23T01:16:06;2.17;;;1.40;;
35977;SDS011;22056;0.000;0.000;2023-05-23T01:18:36;1.30;;;1.08;;
35977;SDS011;22056;0.000;0.000;2023-05-23T01:21:08;1.52;;;1.10;;
35977;SDS011;22056;0.000;0.000;2023-05-23T01:28:39;1.38;;;1.00;;
35977;SDS011;22056;0.000;0.000;2023-05-23T01:31:09;1.55;;;1.30;;
35977;SDS011;22056;0.000;0.000;2023-05-23T01:33:35;1.48;;;1.10;;
35977;SDS011;22056;0.000;0.000;2023-05-23T01:36:02;1.55;;;1.10;;
35977;SDS011;22056;0.000;0.000;2023-05-23T01:38:29;1.08;;;0.95;;
35977;SDS011;22056;0.000;0.000;2023-05-23T01:40:55;1.50;;;1.08;;
35977;SDS011;22056;0.000;0.000;2023-05-23T01:43:21;1.17;;;1.00;;
35977;SDS011;22056;0.000;0.000;2023-05-23T01:45:47;1.30;;;1.00;;
35977;SDS011;22056;0.000;0.000;2023-05-23T01:48:14;1.05;;;0.90;;
35977;SDS011;22056;0.000;0.000;2023-05-23T01:50:41;1.13;;;1.02;;
35977;SDS011;22056;0.000;0.000;2023-05-23T01:53:09;1.30;;;1.20;;
35977;SDS011;22056;0.000;0.000;2023-05-23T01:55:37;1.38;;;1.27;;
35977;SDS011;22056;0.000;0.000;2023-05-23T01:58:03;1.55;;;1.00;;
35977;SDS011;22056;0.000;0.000;2023-05-23T02:00:30;1.10;;;1.00;;
35977;SDS011;22056;0.000;0.000;2023-05-23T02:02:56;1.08;;;0.98;;
35977;SDS011;22056;0.000;0.000;2023-05-23T02:05:22;1.50;;;1.15;;
35977;SDS011;22056;0.000;0.000;2023-05-23T02:07:48;1.58;;;0.90;;
35977;SDS011;22056;0.000;0.000;2023-05-23T02:10:15;1.23;;;1.10;;
35977;SDS011;22056;0.000;0.000;2023-05-23T02:12:41;1.20;;;1.10;;
35977;SDS011;22056;0.000;0.000;2023-05-23T02:15:07;1.23;;;0.98;;
35977;SDS011;22056;0.000;0.000;2023-05-23T02:17:33;1.02;;;0.90;;
35977;SDS011;22056;0.000;0.000;2023-05-23T02:19:59;1.13;;;1.02;;
35977;SDS011;22056;0.000;0.000;2023-05-23T02:22:25;1.33;;;1.23;;
35977;SDS011;22056;0.000;0.000;2023-05-23T02:24:52;2.05;;;1.00;;
35977;SDS011;22056;0.000;0.000;2023-05-23T02:27:18;1.15;;;0.93;;
35977;SDS011;22056;0.000;0.000;2023-05-23T02:29:44;1.08;;;0.88;;
35977;SDS011;22056;0.000;0.000;2023-05-23T02:32:10;1.20;;;1.10;;
35977;SDS011;22056;0.000;0.000;2023-05-23T02:34:36;1.52;;;0.90;;
35977;SDS011;22056;0.000;0.000;2023-05-23T02:37:02;1.20;;;1.08;;
35977;SDS011;22056;0.000;0.000;2023-05-23T02:39:28;0.90;;;0.90;;
35977;SDS011;22056;0.000;0.000;2023-05-23T02:41:55;1.08;;;0.98;;
35977;SDS011;22056;0.000;0.000;2023-05-23T02:44:21;1.33;;;1.23;;
35977;SDS011;22056;0.000;0.000;2023-05-23T02:46:47;1.40;;;1.10;;
35977;SDS011;22056;0.000;0.000;2023-05-23T02:49:13;1.27;;;1.08;;
35977;SDS011;22056;0.000;0.000;2023-05-23T02:51:39;1.27;;;1.17;;
35977;SDS011;22056;0.000;0.000;2023-05-23T02:54:05;1.33;;;1.00;;
35977;SDS011;22056;0.000;0.000;2023-05-23T02:56:31;1.00;;;0.90;;
35977;SDS011;22056;0.000;0.000;2023-05-23T02:58:57;1.40;;;1.25;;
35977;SDS011;22056;0.000;0.000;2023-05-23T03:01:23;1.67;;;1.00;;
35977;SDS011;22056;0.000;0.000;2023-05-23T03:03:50;1.00;;;0.90;;
35977;SDS011;22056;0.000;0.000;2023-05-23T03:06:16;0.70;;;0.70;;
35977;SDS011;22056;0.000;0.000;2023-05-23T03:08:42;1.10;;;1.00;;
35977;SDS011;22056;0.000;0.000;2023-05-23T03:11:08;1.10;;;1.00;;
35977;SDS011;22056;0.000;0.000;2023-05-23T03:13:34;1.45;;;1.10;;
35977;SDS011;22056;0.000;0.000;2023-05-23T03:16:01;1.13;;;0.93;;
35977;SDS011;22056;0.000;0.000;2023-05-23T03:18:27;1.20;;;1.10;;
35977;SDS011;22056;0.000;0.000;2023-05-23T03:20:53;2.28;;;1.42;;
35977;SDS011;22056;0.000;0.000;2023-05-23T03:23:19;1.50;;;1.20;;
35977;SDS011;22056;0.000;0.000;2023-05-23T03:25:45;1.80;;;1.33;;
35977;SDS011;22056;0.000;0.000;2023-05-23T03:28:11;1.42;;;1.17;;
35977;SDS011;22056;0.000;0.000;2023-05-23T03:30:37;1.13;;;1.02;;
35977;SDS011;22056;0.000;0.000;2023-05-23T03:33:03;1.30;;;0.90;;
35977;SDS011;22056;0.000;0.000;2023-05-23T03:35:30;1.15;;;0.93;;
35977;SDS011;22056;0.000;0.000;2023-05-23T03:37:57;1.02;;;0.95;;
35977;SDS011;22056;0.000;0.000;2023-05-23T03:40:23;1.10;;;1.00;;
35977;SDS011;22056;0.000;0.000;2023-05-23T03:43:00;1.35;;;1.08;;
35977;SDS011;22056;0.000;0.000;2023-05-23T03:45:27;1.55;;;1.10;;
35977;SDS011;22056;0.000;0.000;2023-05-23T03:47:53;1.10;;;1.00;;
35977;SDS011;22056;0.000;0.000;2023-05-23T03:50:19;1.13;;;1.00;;
35977;SDS011;22056;0.000;0.000;2023-05-23T03:52:45;0.90;;;0.80;;
35977;SDS011;22056;0.000;0.000;2023-05-23T03:55:11;1.50;;;1.10;;
35977;SDS011;22056;0.000;0.000;2023-05-23T03:57:37;1.42;;;1.08;;
35977;SDS011;22056;0.000;0.000;2023-05-23T04:00:04;1.10;;;1.00;;
35977;SDS011;22056;0.000;0.000;2023-05-23T04:05:03;1.10;;;1.00;;
35977;SDS011;22056;0.000;0.000;2023-05-23T04:07:31;1.55;;;1.35;;
35977;SDS011;22056;0.000;0.000;2023-05-23T04:09:59;0.88;;;0.88;;
35977;SDS011;22056;0.000;0.000;2023-05-23T04:12:25;1.75;;;1.00;;
35977;SDS011;22056;0.000;0.000;2023-05-23T04:14:51;1.52;;;1.08;;
35977;SDS011;22056;0.000;0.000;2023-05-23T04:17:17;1.30;;;1.20;;
35977;SDS011;22056;0.000;0.000;2023-05-23T04:19:43;1.40;;;1.00;;
35977;SDS011;22056;0.000;0.000;2023-05-23T04:22:09;1.25;;;1.15;;
35977;SDS011;22056;0.000;0.000;2023-05-23T04:24:36;1.10;;;1.00;;
35977;SDS011;22056;0.000;0.000;2023-05-23T04:27:02;1.95;;;1.40;;
35977;SDS011;22056;0.000;0.000;2023-05-23T04:29:29;2.35;;;0.80;;
35977;SDS011;22056;0.000;0.000;2023-05-23T04:31:56;1.48;;;0.90;;
35977;SDS011;22056;0.000;0.000;2023-05-23T04:34:22;2.28;;;1.00;;
35977;SDS011;22056;0.000;0.000;2023-05-23T04:36:48;1.30;;;1.10;;
35977;SDS011;22056;0.000;0.000;2023-05-23T04:39:15;0.77;;;0.77;;
35977;SDS011;22056;0.000;0.000;2023-05-23T04:41:41;1.45;;;1.02;;
35977;SDS011;22056;0.000;0.000;2023-05-23T04:44:09;1.10;;;0.93;;
35977;SDS011;22056;0.000;0.000;2023-05-23T04:46:35;1.00;;;0.90;;
35977;SDS011;22056;0.000;0.000;2023-05-23T04:49:05;1.70;;;0.90;;
35977;SDS011;22056;0.000;0.000;2023-05-23T04:51:32;2.20;;;1.10;;
35977;SDS011;22056;0.000;0.000;2023-05-23T04:53:59;3.20;;;1.20;;
35977;SDS011;22056;0.000;0.000;2023-05-23T04:56:25;2.65;;;1.20;;
35977;SDS011;22056;0.000;0.000;2023-05-23T04:58:52;2.03;;;0.90;;
35977;SDS011;22056;0.000;0.000;2023-05-23T05:01:18;3.25;;;1.25;;
35977;SDS011;22056;0.000;0.000;2023-05-23T05:03:44;2.58;;;1.33;;
35977;SDS011;22056;0.000;0.000;2023-05-23T05:06:12;3.03;;;1.30;;
35977;SDS011;22056;0.000;0.000;2023-05-23T05:08:38;1.65;;;1.20;;
35977;SDS011;22056;0.000;0.000;2023-05-23T05:11:07;3.97;;;1.20;;
35977;SDS011;22056;0.000;0.000;2023-05-23T05:13:34;2.47;;;1.10;;
35977;SDS011;22056;0.000;0.000;2023-05-23T05:16:00;2.22;;;1.20;;
35977;SDS011;22056;0.000;0.000;2023-05-23T05:18:27;1.80;;;1.30;;
35977;SDS011;22056;0.000;0.000;2023-05-23T05:20:53;1.95;;;1.20;;
35977;SDS011;22056;0.000;0.000;2023-05-23T05:23:24;3.30;;;1.02;;
35977;SDS011;22056;0.000;0.000;2023-05-23T05:25:53;1.23;;;1.13;;
35977;SDS011;22056;0.000;0.000;2023-05-23T05:28:20;1.90;;;1.10;;
35977;SDS011;22056;0.000;0.000;2023-05-23T05:30:46;1.77;;;1.20;;
35977;SDS011;22056;0.000;0.000;2023-05-23T05:33:12;2.33;;;1.30;;
35977;SDS011;22056;0.000;0.000;2023-05-23T05:35:39;2.72;;;1.23;;
35977;SDS011;22056;0.000;0.000;2023-05-23T05:38:05;2.10;;;1.20;;
35977;SDS011;22056;0.000;0.000;2023-05-23T05:40:32;2.65;;;1.10;;
35977;SDS011;22056;0.000;0.000;2023-05-23T05:42:58;1.92;;;1.40;;
35977;SDS011;22056;0.000;0.000;2023-05-23T05:45:24;2.05;;;1.10;;
35977;SDS011;22056;0.000;0.000;2023-05-23T05:47:51;3.00;;;1.08;;
35977;SDS011;22056;0.000;0.000;2023-05-23T05:50:17;2.65;;;1.00;;
35977;SDS011;22056;0.000;0.000;2023-05-23T05:52:44;1.23;;;1.02;;
35977;SDS011;22056;0.000;0.000;2023-05-23T05:55:11;2.92;;;1.40;;
35977;SDS011;22056;0.000;0.000;2023-05-23T05:57:37;3.78;;;1.05;;
35977;SDS011;22056;0.000;0.000;2023-05-23T06:00:13;3.05;;;1.13;;
35977;SDS011;22056;0.000;0.000;2023-05-23T06:02:39;4.95;;;1.20;;
35977;SDS011;22056;0.000;0.000;2023-05-23T06:05:11;2.00;;;1.00;;
35977;SDS011;22056;0.000;0.000;2023-05-23T06:07:38;5.30;;;1.58;;
35977;SDS011;22056;0.000;0.000;2023-05-23T06:10:04;4.15;;;1.38;;
35977;SDS011;22056;0.000;0.000;2023-05-23T06:12:31;3.47;;;1.17;;
35977;SDS011;22056;0.000;0.000;2023-05-23T06:14:58;3.83;;;1.08;;
35977;SDS011;22056;0.000;0.000;2023-05-23T06:17:24;2.65;;;1.40;;
35977;SDS011;22056;0.000;0.000;2023-05-23T06:19:50;3.83;;;1.45;;
35977;SDS011;22056;0.000;0.000;2023-05-23T06:22:16;1.38;;;1.10;;
35977;SDS011;22056;0.000;0.000;2023-05-23T06:24:43;2.22;;;1.02;;
35977;SDS011;22056;0.000;0.000;2023-05-23T06:27:09;4.00;;;1.63;;
35977;SDS011;22056;0.000;0.000;2023-05-23T06:29:35;4.50;;;1.40;;
35977;SDS011;22056;0.000;0.000;2023-05-23T06:32:01;3.72;;;1.10;;
35977;SDS011;22056;0.000;0.000;2023-05-23T06:34:27;4.03;;;1.00;;
35977;SDS011;22056;0.000;0.000;2023-05-23T06:36:54;2.30;;;1.00;;
35977;SDS011;22056;0.000;0.000;2023-05-23T06:39:20;3.55;;;1.08;;
35977;SDS011;22056;0.000;0.000;2023-05-23T06:41:46;2.35;;;1.30;;
35977;SDS011;22056;0.000;0.000;2023-05-23T06:44:13;3.20;;;1.45;;
35977;SDS011;22056;0.000;0.000;2023-05-23T06:46:41;2.00;;;1.23;;
35977;SDS011;22056;0.000;0.000;2023-05-23T06:49:08;2.05;;;0.90;;
35977;SDS011;22056;0.000;0.000;2023-05-23T06:51:34;4.10;;;1.45;;
35977;SDS011;22056;0.000;0.000;2023-05-23T06:54:00;4.57;;;1.50;;
35977;SDS011;22056;0.000;0.000;2023-05-23T06:56:26;3.50;;;1.45;;
35977;SDS011;22056;0.000;0.000;2023-05-23T06:58:52;3.03;;;1.13;;
35977;SDS011;22056;0.000;0.000;2023-05-23T07:01:18;2.65;;;1.40;;
35977;SDS011;22056;0.000;0.000;2023-05-23T07:03:45;2.08;;;1.50;;
35977;SDS011;22056;0.000;0.000;2023-05-23T07:06:11;2.30;;;1.20;;
35977;SDS011;22056;0.000;0.000;2023-05-23T07:08:37;2.60;;;1.15;;
35977;SDS011;22056;0.000;0.000;2023-05-23T07:11:03;2.47;;;1.30;;
35977;SDS011;22056;0.000;0.000;2023-05-23T07:13:30;3.10;;;1.40;;
35977;SDS011;22056;0.000;0.000;2023-05-23T07:15:57;4.05;;;1.40;;
35977;SDS011;22056;0.000;0.000;2023-05-23T07:18:23;3.78;;;1.35;;
35977;SDS011;22056;0.000;0.000;2023-05-23T07:20:49;2.83;;;1.30;;
35977;SDS011;22056;0.000;0.000;2023-05-23T07:23:15;1.67;;;1.40;;
35977;SDS011;22056;0.000;0.000;2023-05-23T07:25:42;4.00;;;1.13;;
35977;SDS011;22056;0.000;0.000;2023-05-23T07:28:08;2.83;;;1.20;;
35977;SDS011;22056;0.000;0.000;2023-05-23T07:30:34;2.28;;;1.42;;
35977;SDS011;22056;0.000;0.000;2023-05-23T07:33:00;2.92;;;1.30;;
35977;SDS011;22056;0.000;0.000;2023-05-23T07:35:27;2.55;;;1.35;;
35977;SDS011;22056;0.000;0.000;2023-05-23T07:37:53;3.42;;;1.30;;
35977;SDS011;22056;0.000;0.000;2023-05-23T07:40:20;2.60;;;1.30;;
35977;SDS011;22056;0.000;0.000;2023-05-23T07:42:46;3.05;;;1.40;;
35977;SDS011;22056;0.000;0.000;2023-05-23T07:45:13;5.25;;;1.38;;
35977;SDS011;22056;0.000;0.000;2023-05-23T07:47:39;5.03;;;1.52;;
35977;SDS011;22056;0.000;0.000;2023-05-23T07:50:06;2.17;;;1.42;;
35977;SDS011;22056;0.000;0.000;2023-05-23T07:52:33;1.95;;;1.30;;
35977;SDS011;22056;0.000;0.000;2023-05-23T07:55:00;2.47;;;1.17;;
35977;SDS011;22056;0.000;0.000;2023-05-23T07:57:26;2.13;;;1.20;;
35977;SDS011;22056;0.000;0.000;2023-05-23T07:59:52;3.42;;;1.40;;
35977;SDS011;22056;0.000;0.000;2023-05-23T08:02:19;3.55;;;1.50;;
35977;SDS011;22056;0.000;0.000;2023-05-23T08:04:45;3.03;;;1.27;;
35977;SDS011;22056;0.000;0.000;2023-05-23T08:07:12;2.72;;;1.40;;
35977;SDS011;22056;0.000;0.000;2023-05-23T08:09:38;3.03;;;1.35;;
35977;SDS011;22056;0.000;0.000;2023-05-23T08:12:05;1.58;;;1.38;;
35977;SDS011;22056;0.000;0.000;2023-05-23T08:14:31;1.58;;;1.33;;
35977;SDS011;22056;0.000;0.000;2023-05-23T08:16:57;3.13;;;1.50;;
35977;SDS011;22056;0.000;0.000;2023-05-23T08:19:23;1.95;;;1.40;;
35977;SDS011;22056;0.000;0.000;2023-05-23T08:21:50;3.50;;;1.83;;
35977;SDS011;22056;0.000;0.000;2023-05-23T08:24:17;3.92;;;1.85;;
35977;SDS011;22056;0.000;0.000;2023-05-23T08:26:44;3.28;;;1.80;;
35977;SDS011;22056;0.000;0.000;2023-05-23T08:29:10;2.92;;;1.60;;
35977;SDS011;22056;0.000;0.000;2023-05-23T08:31:36;3.47;;;1.42;;
35977;SDS011;22056;0.000;0.000;2023-05-23T08:34:02;3.47;;;1.88;;
35977;SDS011;22056;0.000;0.000;2023-05-23T08:36:28;3.80;;;1.35;;
35977;SDS011;22056;0.000;0.000;2023-05-23T08:38:58;3.22;;;1.50;;
35977;SDS011;22056;0.000;0.000;2023-05-23T08:41:24;2.25;;;1.60;;
35977;SDS011;22056;0.000;0.000;2023-05-23T08:43:51;2.70;;;1.58;;
35977;SDS011;22056;0.000;0.000;2023-05-23T08:46:17;3.70;;;1.67;;
35977;SDS011;22056;0.000;0.000;2023-05-23T08:48:46;2.95;;;2.03;;
35977;SDS011;22056;0.000;0.000;2023-05-23T08:51:15;3.75;;;1.48;;
35977;SDS011;22056;0.000;0.000;2023-05-23T08:53:42;2.05;;;1.45;;
35977;SDS011;22056;0.000;0.000;2023-05-23T08:56:13;5.30;;;2.03;;
35977;SDS011;22056;0.000;0.000;2023-05-23T08:58:41;2.97;;;2.08;;
35977;SDS011;22056;0.000;0.000;2023-05-23T09:01:10;2.60;;;1.60;;
35977;SDS011;22056;0.000;0.000;2023-05-23T09:03:38;4.68;;;2.05;;
35977;SDS011;22056;0.000;0.000;2023-05-23T09:06:07;3.03;;;2.15;;
35977;SDS011;22056;0.000;0.000;2023-05-23T09:08:34;5.13;;;1.70;;
35977;SDS011;22056;0.000;0.000;2023-05-23T09:11:01;4.30;;;2.22;;
35977;SDS011;22056;0.000;0.000;2023-05-23T09:13:31;4.20;;;2.03;;
35977;SDS011;22056;0.000;0.000;2023-05-23T09:18:42;3.83;;;1.98;;
35977;SDS011;22056;0.000;0.000;2023-05-23T09:21:09;3.92;;;2.00;;
35977;SDS011;22056;0.000;0.000;2023-05-23T09:23:36;3.72;;;2.33;;
35977;SDS011;22056;0.000;0.000;2023-05-23T09:26:07;3.72;;;2.08;;
35977;SDS011;22056;0.000;0.000;2023-05-23T09:28:34;3.20;;;1.80;;
35977;SDS011;22056;0.000;0.000;2023-05-23T09:31:01;5.07;;;2.25;;
35977;SDS011;22056;0.000;0.000;2023-05-23T09:33:46;3.17;;;2.00;;
35977;SDS011;22056;0.000;0.000;2023-05-23T09:36:13;5.22;;;2.05;;
35977;SDS011;22056;0.000;0.000;2023-05-23T09:38:40;5.25;;;1.63;;
35977;SDS011;22056;0.000;0.000;2023-05-23T09:41:07;4.07;;;1.85;;
35977;SDS011;22056;0.000;0.000;2023-05-23T09:43:37;2.85;;;1.63;;
35977;SDS011;22056;0.000;0.000;2023-05-23T09:46:07;3.85;;;1.70;;
35977;SDS011;22056;0.000;0.000;2023-05-23T09:48:33;2.53;;;1.90;;
35977;SDS011;22056;0.000;0.000;2023-05-23T09:51:09;3.42;;;1.80;;
35977;SDS011;22056;0.000;0.000;2023-05-23T09:53:35;4.22;;;1.63;;
35977;SDS011;22056;0.000;0.000;2023-05-23T09:56:02;2.70;;;1.33;;
35977;SDS011;22056;0.000;0.000;2023-05-23T09:58:28;2.47;;;1.30;;
35977;SDS011;22056;0.000;0.000;2023-05-23T10:00:55;3.22;;;1.90;;
35977;SDS011;22056;0.000;0.000;2023-05-23T10:06:07;3.85;;;1.92;;
35977;SDS011;22056;0.000;0.000;2023-05-23T10:08:36;3.15;;;1.67;;
35977;SDS011;22056;0.000;0.000;2023-05-23T10:13:45;2.08;;;1.42;;
35977;SDS011;22056;0.000;0.000;2023-05-23T10:16:18;3.05;;;1.50;;
35977;SDS011;22056;0.000;0.000;2023-05-23T10:18:47;2.03;;;1.50;;
35977;SDS011;22056;0.000;0.000;2023-05-23T10:21:18;4.22;;;1.38;;
35977;SDS011;22056;0.000;0.000;2023-05-23T10:23:45;3.40;;;1.10;;
35977;SDS011;22056;0.000;0.000;2023-05-23T10:26:12;3.17;;;1.42;;
35977;SDS011;22056;0.000;0.000;2023-05-23T10:28:39;3.50;;;1.35;;
35977;SDS011;22056;0.000;0.000;2023-05-23T10:31:05;2.10;;;1.40;;
35977;SDS011;22056;0.000;0.000;2023-05-23T10:33:32;3.75;;;1.40;;
35977;SDS011;22056;0.000;0.000;2023-05-23T10:36:12;2.72;;;1.48;;
35977;SDS011;22056;0.000;0.000;2023-05-23T10:38:41;4.57;;;1.30;;
35977;SDS011;22056;0.000;0.000;2023-05-23T10:41:45;2.45;;;1.33;;
35977;SDS011;22056;0.000;0.000;2023-05-23T10:49:17;2.67;;;1.50;;
35977;SDS011;22056;0.000;0.000;2023-05-23T10:51:46;1.88;;;1.27;;
35977;SDS011;22056;0.000;0.000;2023-05-23T10:54:14;2.78;;;1.35;;
35977;SDS011;22056;0.000;0.000;2023-05-23T10:56:40;2.05;;;1.35;;
35977;SDS011;22056;0.000;0.000;2023-05-23T10:59:06;2.70;;;1.38;;
35977;SDS011;22056;0.000;0.000;2023-05-23T11:01:38;3.28;;;1.00;;
35977;SDS011;22056;0.000;0.000;2023-05-23T11:04:04;1.70;;;1.10;;
35977;SDS011;22056;0.000;0.000;2023-05-23T11:06:38;3.42;;;1.42;;
35977;SDS011;22056;0.000;0.000;2023-05-23T11:09:13;2.35;;;1.05;;
35977;SDS011;22056;0.000;0.000;2023-05-23T11:15:17;1.92;;;1.20;;
35977;SDS011;22056;0.000;0.000;2023-05-23T11:19:37;3.92;;;1.52;;
35977;SDS011;22056;0.000;0.000;2023-05-23T11:22:04;3.33;;;1.13;;
35977;SDS011;22056;0.000;0.000;2023-05-23T11:24:51;3.33;;;1.23;;
35977;SDS011;22056;0.000;0.000;2023-05-23T11:27:28;1.67;;;0.90;;
35977;SDS011;22056;0.000;0.000;2023-05-23T11:30:05;2.28;;;1.45;;
35977;SDS011;22056;0.000;0.000;2023-05-23T11:32:32;2.90;;;1.20;;
35977;SDS011;22056;0.000;0.000;2023-05-23T11:35:02;2.00;;;1.30;;
35977;SDS011;22056;0.000;0.000;2023-05-23T11:37:29;1.25;;;1.00;;
35977;SDS011;22056;0.000;0.000;2023-05-23T11:39:56;2.95;;;1.30;;
35977;SDS011;22056;0.000;0.000;2023-05-23T11:42:23;1.95;;;1.17;;
35977;SDS011;22056;0.000;0.000;2023-05-23T11:44:49;2.60;;;1.20;;
35977;SDS011;22056;0.000;0.000;2023-05-23T11:47:16;2.20;;;1.00;;
35977;SDS011;22056;0.000;0.000;2023-05-23T11:49:43;4.47;;;1.30;;
35977;SDS011;22056;0.000;0.000;2023-05-23T11:52:11;1.88;;;0.90;;
35977;SDS011;22056;0.000;0.000;2023-05-23T11:54:39;5.30;;;1.15;;
35977;SDS011;22056;0.000;0.000;2023-05-23T11:57:06;4.00;;;1.38;;
35977;SDS011;22056;0.000;0.000;2023-05-23T11:59:32;2.65;;;1.33;;
35977;SDS011;22056;0.000;0.000;2023-05-23T12:02:00;3.72;;;1.40;;
35977;SDS011;22056;0.000;0.000;2023-05-23T12:04:27;2.58;;;1.17;;
35977;SDS011;22056;0.000;0.000;2023-05-23T12:06:53;2.03;;;1.10;;
35977;SDS011;22056;0.000;0.000;2023-05-23T12:09:19;4.28;;;1.15;;
35977;SDS011;22056;0.000;0.000;2023-05-23T12:11:47;2.78;;;1.40;;
35977;SDS011;22056;0.000;0.000;2023-05-23T12:14:14;1.92;;;1.10;;
35977;SDS011;22056;0.000;0.000;2023-05-23T12:16:42;2.83;;;1.27;;
35977;SDS011;22056;0.000;0.000;2023-05-23T12:19:09;3.70;;;1.20;;
35977;SDS011;22056;0.000;0.000;2023-05-23T12:21:42;3.20;;;1.52;;
35977;SDS011;22056;0.000;0.000;2023-05-23T12:26:45;6.68;;;1.85;;
35977;SDS011;22056;0.000;0.000;2023-05-23T12:29:12;1.75;;;1.30;;
35977;SDS011;22056;0.000;0.000;2023-05-23T12:31:38;2.65;;;1.30;;
35977;SDS011;22056;0.000;0.000;2023-05-23T12:34:04;3.85;;;1.50;;
35977;SDS011;22056;0.000;0.000;2023-05-23T12:36:30;3.05;;;1.15;;
35977;SDS011;22056;0.000;0.000;2023-05-23T12:39:03;3.50;;;1.30;;
35977;SDS011;22056;0.000;0.000;2023-05-23T12:41:31;3.40;;;1.20;;
35977;SDS011;22056;0.000;0.000;2023-05-23T12:43:58;2.80;;;1.27;;
35977;SDS011;22056;0.000;0.000;2023-05-23T12:46:25;3.92;;;1.20;;
35977;SDS011;22056;0.000;0.000;2023-05-23T12:48:51;4.13;;;1.30;;
35977;SDS011;22056;0.000;0.000;2023-05-23T12:51:17;5.60;;;1.42;;
35977;SDS011;22056;0.000;0.000;2023-05-23T12:53:43;1.83;;;1.20;;
35977;SDS011;22056;0.000;0.000;2023-05-23T12:56:10;4.80;;;1.38;;
35977;SDS011;22056;0.000;0.000;2023-05-23T12:58:36;5.57;;;1.88;;
35977;SDS011;22056;0.000;0.000;2023-05-23T13:01:02;3.85;;;1.58;;
35977;SDS011;22056;0.000;0.000;2023-05-23T13:03:28;6.85;;;1.58;;
35977;SDS011;22056;0.000;0.000;2023-05-23T13:05:55;7.63;;;1.75;;
35977;SDS011;22056;0.000;0.000;2023-05-23T13:08:22;6.78;;;1.45;;
35977;SDS011;22056;0.000;0.000;2023-05-23T13:10:48;3.45;;;1.35;;
35977;SDS011;22056;0.000;0.000;2023-05-23T13:13:14;3.28;;;1.40;;
35977;SDS011;22056;0.000;0.000;2023-05-23T13:15:40;3.70;;;1.42;;
35977;SDS011;22056;0.000;0.000;2023-05-23T13:18:06;6.47;;;1.17;;
35977;SDS011;22056;0.000;0.000;2023-05-23T13:20:32;5.65;;;1.50;;
35977;SDS011;22056;0.000;0.000;2023-05-23T13:22:59;3.45;;;1.40;;
35977;SDS011;22056;0.000;0.000;2023-05-23T13:25:25;8.43;;;1.40;;
35977;SDS011;22056;0.000;0.000;2023-05-23T13:27:52;4.13;;;1.60;;
35977;SDS011;22056;0.000;0.000;2023-05-23T13:30:19;4.68;;;1.48;;
35977;SDS011;22056;0.000;0.000;2023-05-23T13:32:45;2.30;;;1.40;;
35977;SDS011;22056;0.000;0.000;2023-05-23T13:35:11;5.07;;;1.42;;
35977;SDS011;22056;0.000;0.000;2023-05-23T13:37:37;4.20;;;1.30;;
35977;SDS011;22056;0.000;0.000;2023-05-23T13:40:04;5.32;;;1.40;;
35977;SDS011;22056;0.000;0.000;2023-05-23T13:42:30;3.25;;;1.23;;
35977;SDS011;22056;0.000;0.000;2023-05-23T13:44:56;4.00;;;1.30;;
35977;SDS011;22056;0.000;0.000;2023-05-23T13:47:22;4.07;;;1.38;;
35977;SDS011;22056;0.000;0.000;2023-05-23T13:49:48;3.30;;;1.20;;
35977;SDS011;22056;0.000;0.000;2023-05-23T13:52:15;3.28;;;1.15;;
35977;SDS011;22056;0.000;0.000;2023-05-23T13:54:41;4.18;;;1.40;;
35977;SDS011;22056;0.000;0.000;2023-05-23T13:57:07;3.85;;;1.50;;
35977;SDS011;22056;0.000;0.000;2023-05-23T13:59:33;3.28;;;1.10;;
35977;SDS011;22056;0.000;0.000;2023-05-23T14:01:59;4.18;;;1.40;;
35977;SDS011;22056;0.000;0.000;2023-05-23T14:04:26;2.92;;;1.38;;
35977;SDS011;22056;0.000;0.000;2023-05-23T14:06:52;5.15;;;1.35;;
35977;SDS011;22056;0.000;0.000;2023-05-23T14:09:18;2.92;;;1.33;;
35977;SDS011;22056;0.000;0.000;2023-05-23T14:11:44;3.17;;;1.45;;
35977;SDS011;22056;0.000;0.000;2023-05-23T14:14:11;2.55;;;1.20;;
35977;SDS011;22056;0.000;0.000;2023-05-23T14:16:38;3.03;;;1.23;;
35977;SDS011;22056;0.000;0.000;2023-05-23T14:19:04;3.95;;;1.55;;
35977;SDS011;22056;0.000;0.000;2023-05-23T14:21:30;3.83;;;1.23;;
35977;SDS011;22056;0.000;0.000;2023-05-23T14:23:56;1.50;;;1.10;;
35977;SDS011;22056;0.000;0.000;2023-05-23T14:26:23;3.00;;;1.10;;
35977;SDS011;22056;0.000;0.000;2023-05-23T14:28:49;2.45;;;1.20;;
35977;SDS011;22056;0.000;0.000;2023-05-23T14:31:15;2.90;;;1.25;;
35977;SDS011;22056;0.000;0.000;2023-05-23T14:33:41;3.42;;;1.48;;
35977;SDS011;22056;0.000;0.000;2023-05-23T14:36:07;2.58;;;1.30;;
35977;SDS011;22056;0.000;0.000;2023-05-23T14:38:33;5.18;;;1.40;;
35977;SDS011;22056;0.000;0.000;2023-05-23T14:40:59;2.67;;;1.30;;
35977;SDS011;22056;0.000;0.000;2023-05-23T14:43:25;2.47;;;1.23;;
35977;SDS011;22056;0.000;0.000;2023-05-23T14:45:51;4.10;;;1.30;;
35977;SDS011;22056;0.000;0.000;2023-05-23T14:48:17;2.88;;;0.95;;
35977;SDS011;22056;0.000;0.000;2023-05-23T14:50:43;1.70;;;1.20;;
35977;SDS011;22056;0.000;0.000;2023-05-23T14:53:10;2.03;;;1.15;;
35977;SDS011;22056;0.000;0.000;2023-05-23T14:55:36;3.33;;;1.42;;
35977;SDS011;22056;0.000;0.000;2023-05-23T14:58:02;3.40;;;1.08;;
35977;SDS011;22056;0.000;0.000;2023-05-23T15:00:30;2.78;;;1.17;;
35977;SDS011;22056;0.000;0.000;2023-05-23T15:02:57;2.35;;;1.42;;
35977;SDS011;22056;0.000;0.000;2023-05-23T15:05:23;2.05;;;1.20;;
35977;SDS011;22056;0.000;0.000;2023-05-23T15:07:49;3.88;;;1.30;;
35977;SDS011;22056;0.000;0.000;2023-05-23T15:10:15;5.25;;;1.10;;
35977;SDS011;22056;0.000;0.000;2023-05-23T15:12:42;5.18;;;1.60;;
35977;SDS011;22056;0.000;0.000;2023-05-23T15:15:08;3.35;;;1.20;;
35977;SDS011;22056;0.000;0.000;2023-05-23T15:17:34;2.25;;;1.17;;
35977;SDS011;22056;0.000;0.000;2023-05-23T15:20:01;3.63;;;1.55;;
35977;SDS011;22056;0.000;0.000;2023-05-23T15:22:27;2.10;;;1.05;;
35977;SDS011;22056;0.000;0.000;2023-05-23T15:24:53;2.92;;;1.20;;
35977;SDS011;22056;0.000;0.000;2023-05-23T15:27:19;2.25;;;1.00;;
35977;SDS011;22056;0.000;0.000;2023-05-23T15:29:46;2.95;;;1.02;;
35977;SDS011;22056;0.000;0.000;2023-05-23T15:32:12;2.30;;;1.27;;